ROMMA est une association bénévole à but non lucratif. Votre soutien est indispensable : ADHERER à ROMMA ou FAIRE un DON

Chambon - (38, Isère)

Oisans (2460 m)   Longitude: 06° 10' 42" E   Latitude: 45° 01' 32" N Station partenaire n°803
 

Détail journalier du     <<     >>

Température Humidité Vent Dir Rafale Dir. rafale Neige 1 Neige 2
Heure (°C) (%) (km/h) (km/h) (cm) (cm)
01:00 10.0744S6S21
02:00 10.3735S8SO21
03:00 10.4714SO8SO21
04:00 10.3722NNE8NNE21
05:00 10.4714SSE10SSO21
06:00 10.1737SSO14SSO21
07:00 10.1727SSO12SSO21
08:00 9.8745SSO9SSO21
09:00 12.1673NE8NE21
10:00 12.1694NE10NE30
11:00 13.5595NNE12NNE20
12:00 13.9515NNE12NE30
13:00 14.5504NE11NE20
14:00 14.2564NE14ONO20
15:00 14.4616OSO15OSO00
16:00 14.1678O23O00
17:00 14.1718O21O00
18:00 12.8807O19O00
19:00 9.6879N34O434
20:00 9.59712NE27NE41
21:00 9.28815NE35NE31
22:00 9.4869N33NE51
23:00 8.2985N16N52
minuit 8.5924N14OSO52

Graphique du 27-08-2019

 

Serveur OMMA